<?xml version='1.0' encoding='UTF-8'?>
<gpx xmlns="http://www.topografix.com/GPX/1/1" creator="www.balnam.be" version="1.1" xmlns:xsi="http://www.w3.org/2001/XMLSchema-instance" xsi:schemaLocation="http://www.topografix.com/GPX/1/1 http://www.topografix.com/GPX/1/1/gpx.xsd">
<trk>
<name>hbthw1</name>
<cmt>r</cmt>
<desc>Howardries Chemin n°1 Chemin d'Howardries</desc>
<link href="https://chemins.be/howardries/chemin/1"/><trkseg>
<trkpt lat="50.504831" lon="3.358422"><time>2026-05-02T19:29:09Z</time></trkpt>
<trkpt lat="50.506938" lon="3.359383"><time>2026-05-02T19:39:09Z</time></trkpt>
</trkseg></trk>
<trk>
<name>hbthw1</name>
<cmt>v</cmt>
<desc>Howardries Chemin n°1 Chemin d'Howardries</desc>
<link href="https://chemins.be/howardries/chemin/1"/><trkseg>
<trkpt lat="50.506938" lon="3.359383"><time>2026-05-02T19:39:09Z</time></trkpt>
<trkpt lat="50.508582" lon="3.360400"><time>2026-05-02T19:49:09Z</time></trkpt>
<trkpt lat="50.510242" lon="3.360366"><time>2026-05-02T19:59:09Z</time></trkpt>
<trkpt lat="50.511050" lon="3.362185"><time>2026-05-02T20:09:09Z</time></trkpt>
<trkpt lat="50.512010" lon="3.363061"><time>2026-05-02T20:19:09Z</time></trkpt>
<trkpt lat="50.513080" lon="3.366048"><time>2026-05-02T20:29:09Z</time></trkpt>
<trkpt lat="50.516322" lon="3.373910"><time>2026-05-02T20:39:09Z</time></trkpt>
<trkpt lat="50.519966" lon="3.372927"><time>2026-05-02T20:49:09Z</time></trkpt>
<trkpt lat="50.521008" lon="3.374266"><time>2026-05-02T20:59:09Z</time></trkpt>
<trkpt lat="50.521761" lon="3.375099"><time>2026-05-02T21:09:09Z</time></trkpt>
<trkpt lat="50.522111" lon="3.374730"><time>2026-05-02T21:19:09Z</time></trkpt>
<trkpt lat="50.523066" lon="3.375596"><time>2026-05-02T21:29:09Z</time></trkpt>
</trkseg>
</trk>
<trk>
<name>hbthw10</name>
<cmt>q</cmt>
<desc>Howardries Sentier n°10 </desc>
<link href="https://chemins.be/howardries/sentier/10"/><trkseg>
<trkpt lat="50.513324" lon="3.376385"><time>2026-05-02T19:29:09Z</time></trkpt>
<trkpt lat="50.514931" lon="3.378771"><time>2026-05-02T19:39:09Z</time></trkpt>
</trkseg>
</trk>
<trk>
<name>hbthw2</name>
<cmt>r</cmt>
<desc>Howardries Chemin n°2 Rue de la Gloriette / Chemin du Poncheau</desc>
<link href="https://chemins.be/howardries/chemin/2"/><trkseg>
<trkpt lat="50.529929" lon="3.348852"><time>2026-05-02T19:29:09Z</time></trkpt>
<trkpt lat="50.529293" lon="3.348188"><time>2026-05-02T19:39:09Z</time></trkpt>
<trkpt lat="50.527877" lon="3.347822"><time>2026-05-02T19:49:09Z</time></trkpt>
<trkpt lat="50.526938" lon="3.346642"><time>2026-05-02T19:59:09Z</time></trkpt>
</trkseg></trk>
<trk>
<name>hbthw2</name>
<cmt>v</cmt>
<desc>Howardries Chemin n°2 Rue de la Gloriette / Chemin du Poncheau</desc>
<link href="https://chemins.be/howardries/chemin/2"/><trkseg>
<trkpt lat="50.526938" lon="3.346642"><time>2026-05-02T19:59:09Z</time></trkpt>
<trkpt lat="50.522056" lon="3.343023"><time>2026-05-02T20:09:09Z</time></trkpt>
<trkpt lat="50.521578" lon="3.342381"><time>2026-05-02T20:19:09Z</time></trkpt>
<trkpt lat="50.520758" lon="3.340654"><time>2026-05-02T20:29:09Z</time></trkpt>
<trkpt lat="50.519261" lon="3.338077"><time>2026-05-02T20:39:09Z</time></trkpt>
<trkpt lat="50.517624" lon="3.336026"><time>2026-05-02T20:49:09Z</time></trkpt>
<trkpt lat="50.514835" lon="3.329554"><time>2026-05-02T20:59:09Z</time></trkpt>
<trkpt lat="50.514507" lon="3.329181"><time>2026-05-02T21:09:09Z</time></trkpt>
<trkpt lat="50.513929" lon="3.328835"><time>2026-05-02T21:19:09Z</time></trkpt>
<trkpt lat="50.512581" lon="3.328225"><time>2026-05-02T21:29:09Z</time></trkpt>
<trkpt lat="50.511434" lon="3.327856"><time>2026-05-02T21:39:09Z</time></trkpt>
<trkpt lat="50.510594" lon="3.326615"><time>2026-05-02T21:49:09Z</time></trkpt>
</trkseg>
</trk>
<trk>
<name>hbthw3</name>
<cmt>v</cmt>
<desc>Howardries Chemin n°3 </desc>
<link href="https://chemins.be/howardries/chemin/3"/><trkseg>
<trkpt lat="50.506015" lon="3.355897"><time>2026-05-02T19:29:09Z</time></trkpt>
<trkpt lat="50.505743" lon="3.355890"><time>2026-05-02T19:39:09Z</time></trkpt>
<trkpt lat="50.505421" lon="3.355872"><time>2026-05-02T19:49:09Z</time></trkpt>
</trkseg>
</trk>
<trk>
<name>hbthw4</name>
<cmt>r</cmt>
<desc>Howardries Chemin n°4 </desc>
<link href="https://chemins.be/howardries/chemin/4"/><trkseg>
<trkpt lat="50.510330" lon="3.338433"><time>2026-05-02T19:29:09Z</time></trkpt>
<trkpt lat="50.508542" lon="3.338140"><time>2026-05-02T19:39:09Z</time></trkpt>
</trkseg>
</trk>
<trk>
<name>hbthw6</name>
<cmt>v</cmt>
<desc>Howardries Sentier n°6 </desc>
<link href="https://chemins.be/howardries/sentier/6"/><trkseg>
<trkpt lat="50.516298" lon="3.373856"><time>2026-05-02T19:29:09Z</time></trkpt>
<trkpt lat="50.515055" lon="3.374127"><time>2026-05-02T19:39:09Z</time></trkpt>
</trkseg></trk>
<trk>
<name>hbthw6</name>
<cmt>d</cmt>
<desc>Howardries Sentier n°6 </desc>
<link href="https://chemins.be/howardries/sentier/6"/><trkseg>
<trkpt lat="50.515055" lon="3.374127"><time>2026-05-02T19:39:09Z</time></trkpt>
<trkpt lat="50.514558" lon="3.374265"><time>2026-05-02T19:49:09Z</time></trkpt>
<trkpt lat="50.513733" lon="3.375178"><time>2026-05-02T19:59:09Z</time></trkpt>
<trkpt lat="50.512265" lon="3.379439"><time>2026-05-02T20:09:09Z</time></trkpt>
<trkpt lat="50.512506" lon="3.380410"><time>2026-05-02T20:19:09Z</time></trkpt>
</trkseg>
</trk>
<trk>
<name>hbthw7</name>
<cmt>q</cmt>
<desc>Howardries Sentier n°7 </desc>
<link href="https://chemins.be/howardries/sentier/7"/><trkseg>
<trkpt lat="50.518534" lon="3.379737"><time>2026-05-02T19:29:09Z</time></trkpt>
<trkpt lat="50.518946" lon="3.378189"><time>2026-05-02T19:39:09Z</time></trkpt>
<trkpt lat="50.518842" lon="3.377777"><time>2026-05-02T19:49:09Z</time></trkpt>
<trkpt lat="50.518891" lon="3.377502"><time>2026-05-02T19:59:09Z</time></trkpt>
</trkseg></trk>
<trk>
<name>hbthw7</name>
<cmt>v</cmt>
<desc>Howardries Sentier n°7 </desc>
<link href="https://chemins.be/howardries/sentier/7"/><trkseg>
<trkpt lat="50.518891" lon="3.377502"><time>2026-05-02T19:59:09Z</time></trkpt>
<trkpt lat="50.518498" lon="3.376618"><time>2026-05-02T20:09:09Z</time></trkpt>
<trkpt lat="50.519098" lon="3.375597"><time>2026-05-02T20:19:09Z</time></trkpt>
<trkpt lat="50.519371" lon="3.373090"><time>2026-05-02T20:29:09Z</time></trkpt>
</trkseg>
</trk>
<trk>
<name>hbthw9</name>
<cmt>q</cmt>
<desc>Howardries Sentier n°9 </desc>
<link href="https://chemins.be/howardries/sentier/9"/><trkseg>
<trkpt lat="50.517458" lon="3.379725"><time>2026-05-02T19:29:09Z</time></trkpt>
<trkpt lat="50.517649" lon="3.378571"><time>2026-05-02T19:39:09Z</time></trkpt>
</trkseg>
</trk>
<trk>
<name>hbthwi1</name>
<cmt>v</cmt>
<desc>Howardries Chemin n°i1 </desc>
<link href="https://chemins.be/howardries/chemin/i1"/><trkseg>
<trkpt lat="50.519416" lon="3.378259"><time>2026-05-02T19:29:09Z</time></trkpt>
<trkpt lat="50.521324" lon="3.379877"><time>2026-05-02T19:39:09Z</time></trkpt>
</trkseg>
</trk>
<trk>
<name>hbthwi2</name>
<cmt>v</cmt>
<desc>Howardries Chemin n°i2 </desc>
<link href="https://chemins.be/howardries/chemin/i2"/><trkseg>
<trkpt lat="50.505426" lon="3.355852"><time>2026-05-02T19:29:09Z</time></trkpt>
<trkpt lat="50.504992" lon="3.355810"><time>2026-05-02T19:39:09Z</time></trkpt>
</trkseg>
</trk>
<trk>
<name>hbthwp1</name>
<cmt>q</cmt>
<desc>Howardries Chemin particulier n°p1 Petit Howardries</desc>
<link href="https://chemins.be/howardries/chemin/p1"/><trkseg>
<trkpt lat="50.518853" lon="3.380409"><time>2026-05-02T19:29:09Z</time></trkpt>
<trkpt lat="50.518912" lon="3.380238"><time>2026-05-02T19:39:09Z</time></trkpt>
<trkpt lat="50.518970" lon="3.380024"><time>2026-05-02T19:49:09Z</time></trkpt>
<trkpt lat="50.519240" lon="3.378639"><time>2026-05-02T19:59:09Z</time></trkpt>
<trkpt lat="50.519294" lon="3.378425"><time>2026-05-02T20:09:09Z</time></trkpt>
<trkpt lat="50.519373" lon="3.378221"><time>2026-05-02T20:19:09Z</time></trkpt>
<trkpt lat="50.519425" lon="3.378165"><time>2026-05-02T20:29:09Z</time></trkpt>
<trkpt lat="50.520394" lon="3.376594"><time>2026-05-02T20:39:09Z</time></trkpt>
</trkseg>
</trk>
<trk>
<name>hbthwp10</name>
<cmt>q</cmt>
<desc>Howardries Chemin particulier n°p10 </desc>
<link href="https://chemins.be/howardries/chemin/p10"/><trkseg>
<trkpt lat="50.510443" lon="3.338411"><time>2026-05-02T19:29:09Z</time></trkpt>
<trkpt lat="50.514610" lon="3.345562"><time>2026-05-02T19:39:09Z</time></trkpt>
</trkseg>
</trk>
<trk>
<name>hbthwp11</name>
<cmt>d</cmt>
<desc>Howardries Chemin particulier n°p11 </desc>
<link href="https://chemins.be/howardries/chemin/p11"/><trkseg>
<trkpt lat="50.510462" lon="3.338395"><time>2026-05-02T19:29:09Z</time></trkpt>
<trkpt lat="50.511463" lon="3.337880"><time>2026-05-02T19:39:09Z</time></trkpt>
</trkseg>
</trk>
<trk>
<name>hbthwp12</name>
<cmt>q</cmt>
<desc>Howardries Chemin particulier n°p12 </desc>
<link href="https://chemins.be/howardries/chemin/p12"/><trkseg>
<trkpt lat="50.510621" lon="3.326686"><time>2026-05-02T19:29:09Z</time></trkpt>
<trkpt lat="50.510261" lon="3.326940"><time>2026-05-02T19:39:09Z</time></trkpt>
<trkpt lat="50.509288" lon="3.327848"><time>2026-05-02T19:49:09Z</time></trkpt>
<trkpt lat="50.509149" lon="3.328402"><time>2026-05-02T19:59:09Z</time></trkpt>
<trkpt lat="50.508433" lon="3.329017"><time>2026-05-02T20:09:09Z</time></trkpt>
<trkpt lat="50.508066" lon="3.330123"><time>2026-05-02T20:19:09Z</time></trkpt>
<trkpt lat="50.508010" lon="3.332207"><time>2026-05-02T20:29:09Z</time></trkpt>
<trkpt lat="50.507782" lon="3.333220"><time>2026-05-02T20:39:09Z</time></trkpt>
<trkpt lat="50.507998" lon="3.334385"><time>2026-05-02T20:49:09Z</time></trkpt>
<trkpt lat="50.508451" lon="3.334979"><time>2026-05-02T20:59:09Z</time></trkpt>
<trkpt lat="50.508474" lon="3.335666"><time>2026-05-02T21:09:09Z</time></trkpt>
<trkpt lat="50.508803" lon="3.336903"><time>2026-05-02T21:19:09Z</time></trkpt>
<trkpt lat="50.508829" lon="3.337466"><time>2026-05-02T21:29:09Z</time></trkpt>
<trkpt lat="50.508515" lon="3.338211"><time>2026-05-02T21:39:09Z</time></trkpt>
<trkpt lat="50.508315" lon="3.338440"><time>2026-05-02T21:49:09Z</time></trkpt>
<trkpt lat="50.506313" lon="3.347180"><time>2026-05-02T21:59:09Z</time></trkpt>
<trkpt lat="50.505235" lon="3.353432"><time>2026-05-02T22:09:09Z</time></trkpt>
<trkpt lat="50.504761" lon="3.358261"><time>2026-05-02T22:19:09Z</time></trkpt>
</trkseg>
</trk>
<trk>
<name>hbthwp13</name>
<cmt>v</cmt>
<desc>Howardries Chemin particulier n°p13 </desc>
<link href="https://chemins.be/howardries/chemin/p13"/><trkseg>
<trkpt lat="50.507177" lon="3.353975"><time>2026-05-02T19:29:09Z</time></trkpt>
<trkpt lat="50.507524" lon="3.354152"><time>2026-05-02T19:39:09Z</time></trkpt>
</trkseg></trk>
<trk>
<name>hbthwp13</name>
<cmt>d</cmt>
<desc>Howardries Chemin particulier n°p13 </desc>
<link href="https://chemins.be/howardries/chemin/p13"/><trkseg>
<trkpt lat="50.507524" lon="3.354152"><time>2026-05-02T19:39:09Z</time></trkpt>
<trkpt lat="50.507905" lon="3.353890"><time>2026-05-02T19:49:09Z</time></trkpt>
<trkpt lat="50.508550" lon="3.354334"><time>2026-05-02T19:59:09Z</time></trkpt>
<trkpt lat="50.509162" lon="3.354116"><time>2026-05-02T20:09:09Z</time></trkpt>
</trkseg></trk>
<trk>
<name>hbthwp13</name>
<cmt>q</cmt>
<desc>Howardries Chemin particulier n°p13 </desc>
<link href="https://chemins.be/howardries/chemin/p13"/><trkseg>
<trkpt lat="50.509162" lon="3.354116"><time>2026-05-02T20:09:09Z</time></trkpt>
<trkpt lat="50.510016" lon="3.354140"><time>2026-05-02T20:19:09Z</time></trkpt>
<trkpt lat="50.510694" lon="3.354605"><time>2026-05-02T20:29:09Z</time></trkpt>
</trkseg>
</trk>
<trk>
<name>hbthwp2</name>
<cmt>v</cmt>
<desc>Howardries Chemin particulier n°p2 </desc>
<link href="https://chemins.be/howardries/chemin/p2"/><trkseg>
<trkpt lat="50.518482" lon="3.376575"><time>2026-05-02T19:29:09Z</time></trkpt>
<trkpt lat="50.517538" lon="3.377425"><time>2026-05-02T19:39:09Z</time></trkpt>
</trkseg>
</trk>
<trk>
<name>hbthwp3</name>
<cmt>r</cmt>
<desc>Howardries Chemin particulier n°p3 Petit Howardries</desc>
<link href="https://chemins.be/howardries/chemin/p3"/><trkseg>
<trkpt lat="50.517821" lon="3.379794"><time>2026-05-02T19:29:09Z</time></trkpt>
<trkpt lat="50.517493" lon="3.377241"><time>2026-05-02T19:39:09Z</time></trkpt>
</trkseg></trk>
<trk>
<name>hbthwp3</name>
<cmt>v</cmt>
<desc>Howardries Chemin particulier n°p3 Petit Howardries</desc>
<link href="https://chemins.be/howardries/chemin/p3"/><trkseg>
<trkpt lat="50.517493" lon="3.377241"><time>2026-05-02T19:39:09Z</time></trkpt>
<trkpt lat="50.516310" lon="3.373906"><time>2026-05-02T19:49:09Z</time></trkpt>
</trkseg>
</trk>
<trk>
<name>hbthwp4</name>
<cmt>q</cmt>
<desc>Howardries Chemin particulier n°p4 </desc>
<link href="https://chemins.be/howardries/chemin/p4"/><trkseg>
<trkpt lat="50.518634" lon="3.379937"><time>2026-05-02T19:29:09Z</time></trkpt>
<trkpt lat="50.519100" lon="3.379341"><time>2026-05-02T19:39:09Z</time></trkpt>
<trkpt lat="50.518950" lon="3.378199"><time>2026-05-02T19:49:09Z</time></trkpt>
</trkseg>
</trk>
<trk>
<name>hbthwp5</name>
<cmt>v</cmt>
<desc>Howardries Chemin particulier n°p5 </desc>
<link href="https://chemins.be/howardries/chemin/p5"/><trkseg>
<trkpt lat="50.519399" lon="3.378249"><time>2026-05-02T19:29:09Z</time></trkpt>
<trkpt lat="50.518896" lon="3.377476"><time>2026-05-02T19:39:09Z</time></trkpt>
</trkseg>
</trk>
<trk>
<name>hbthwp6</name>
<cmt>q</cmt>
<desc>Howardries Chemin particulier n°p6 </desc>
<link href="https://chemins.be/howardries/chemin/p6"/><trkseg>
<trkpt lat="50.516922" lon="3.375691"><time>2026-05-02T19:29:09Z</time></trkpt>
<trkpt lat="50.515757" lon="3.376799"><time>2026-05-02T19:39:09Z</time></trkpt>
<trkpt lat="50.515566" lon="3.377314"><time>2026-05-02T19:49:09Z</time></trkpt>
<trkpt lat="50.515021" lon="3.377665"><time>2026-05-02T19:59:09Z</time></trkpt>
<trkpt lat="50.514648" lon="3.378251"><time>2026-05-02T20:09:09Z</time></trkpt>
</trkseg>
</trk>
<trk>
<name>hbthwp7</name>
<cmt>q</cmt>
<desc>Howardries Sentier particulier n°p7 </desc>
<link href="https://chemins.be/howardries/sentier/p7"/><trkseg>
<trkpt lat="50.515798" lon="3.372822"><time>2026-05-02T19:29:09Z</time></trkpt>
<trkpt lat="50.515093" lon="3.371857"><time>2026-05-02T19:39:09Z</time></trkpt>
<trkpt lat="50.511696" lon="3.369554"><time>2026-05-02T19:49:09Z</time></trkpt>
</trkseg>
</trk>
<trk>
<name>hbthwp8</name>
<cmt>q</cmt>
<desc>Howardries Chemin particulier n°p8 </desc>
<link href="https://chemins.be/howardries/chemin/p8"/><trkseg>
<trkpt lat="50.511690" lon="3.362716"><time>2026-05-02T19:29:09Z</time></trkpt>
<trkpt lat="50.512640" lon="3.359526"><time>2026-05-02T19:39:09Z</time></trkpt>
</trkseg>
</trk>
<trk>
<name>hbthwp9</name>
<cmt>r</cmt>
<desc>Howardries Chemin particulier n°p9 Rue du Planti</desc>
<link href="https://chemins.be/howardries/chemin/p9"/><trkseg>
<trkpt lat="50.510393" lon="3.338433"><time>2026-05-02T19:29:09Z</time></trkpt>
<trkpt lat="50.509443" lon="3.343597"><time>2026-05-02T19:39:09Z</time></trkpt>
</trkseg>
</trk>
</gpx>